Decoded Metar for LFBZ (BIARRITZ-BAYONNE in FRANCE) (IATA:BIQ) | Meteo·Mobile Aviation Weather
aviador You're here:

LFBZ Decoded Metar

BIARRITZ-BAYONNE in FRANCE
Report Time2018-08-21 16:00:00
UTC Time2018-08-21 16:07:24
Flight Rules vfr VFR
Wind330° at 07 kt
W.Decomp.*RWY 27: 3.4 kt HW 6.1 kt RCW
W.Rank330° ranks 10
Current wind is below 330° avg. (7.4)
Visibility9999 m
Phenomena:N/A
Clouds:N/A
Expected CloudBase > 2,000 ft AGL from Temp-Dew spread
CeilingNone
Temp25°C (ISA +10)
Dew Point20°C (74% RH)
QNH1016 hPa
Density Alt1,654 ft
Elevation233 ft
Report Wrong Elevation
Raw Report
METAR LFBZ 211600Z AUTO 33007KT 290V350 CAVOK 25/20 Q1016 NOSIG=

Extra information for LFBZ:More info

Metar Taf Metar & Taf Last 4 Metars F.Rules Stats Wind Profile Meteogram Temp Stats Airport Information Weather charts Add Link Nearby VenuesMetar ALERT Operation Metar Decoded Social comments